Time;durP1;ratioP1;P1;durP2;ratioP2;P2;SDS_P1;SDS_P2;PMS_P1;PMS_P2;Temp;Humidity;BMP_temperature;BMP_pressure;BME280_temperature;BME280_humidity;BME280_pressure;Samples;Min_cycle;Max_cycle;Signal;HPM_P1;HPM_P2
2021/01/11 02:36:35;;;;;;;50.22;17.17;;;-5.00;99.90;;;;;;6219558;22;20032;-82
2021/01/11 02:39:00;;;;;;;49.75;17.85;;;-5.00;99.90;;;;;;6235180;23;20032;-82
2021/01/11 02:41:26;;;;;;;53.70;18.73;;;-5.10;99.90;;;;;;6194955;23;20005;-82
2021/01/11 02:43:52;;;;;;;52.67;20.48;;;-5.10;99.90;;;;;;6194179;23;20007;-82
2021/01/11 02:46:17;;;;;;;61.38;21.33;;;-5.10;99.90;;;;;;6196217;23;20027;-80
2021/01/11 02:48:54;;;;;;;52.75;18.00;;;-5.20;99.90;;;;;;6192699;23;20005;-81
2021/01/11 02:51:41;;;;;;;51.85;18.98;;;-5.20;99.90;;;;;;6195913;23;20084;-80
2021/01/11 02:54:23;;;;;;;51.13;17.13;;;-5.20;99.90;;;;;;6192427;23;20075;-81
2021/01/11 02:56:52;;;;;;;43.15;16.05;;;-5.20;99.90;;;;;;6219884;23;20321;-81
2021/01/11 02:59:29;;;;;;;57.50;19.80;;;-5.10;99.90;;;;;;6193362;23;20005;-82
2021/01/11 03:02:15;;;;;;;52.58;18.60;;;-5.00;99.90;;;;;;6192122;23;20005;-81
2021/01/11 03:04:41;;;;;;;46.97;18.65;;;-5.00;99.90;;;;;;6220024;23;20000;-82
2021/01/11 03:07:09;;;;;;;53.53;18.90;;;-4.90;99.90;;;;;;6192223;23;20039;-81
2021/01/11 03:09:42;;;;;;;54.53;20.70;;;-5.00;99.90;;;;;;6219026;23;20004;-81
2021/01/11 03:12:10;;;;;;;56.30;20.83;;;-5.00;99.90;;;;;;6192546;23;20087;-81
2021/01/11 03:14:36;;;;;;;53.63;18.25;;;-5.00;99.90;;;;;;6192193;23;20024;-81
2021/01/11 03:17:03;;;;;;;43.78;17.05;;;-5.00;99.90;;;;;;6221429;23;20001;-84
2021/01/11 03:19:28;;;;;;;46.20;17.00;;;-5.00;99.90;;;;;;6196163;23;20084;-82
2021/01/11 03:21:54;;;;;;;53.45;20.23;;;-5.00;99.90;;;;;;6192272;23;20012;-81
2021/01/11 03:24:21;;;;;;;47.20;17.70;;;-4.90;99.90;;;;;;6219411;23;20404;-83
2021/01/11 03:26:49;;;;;;;52.33;16.48;;;-4.90;99.90;;;;;;6193238;23;20055;-82
2021/01/11 03:29:15;;;;;;;42.70;17.73;;;-4.80;99.90;;;;;;6219042;23;20008;-82
2021/01/11 03:31:42;;;;;;;42.83;15.27;;;-4.80;99.90;;;;;;6192304;23;20031;-82
2021/01/11 03:34:09;;;;;;;45.72;17.13;;;-4.80;99.90;;;;;;6219668;23;20023;-81
2021/01/11 03:36:36;;;;;;;53.10;18.40;;;-4.70;99.90;;;;;;6223124;23;20004;-81
2021/01/11 03:39:03;;;;;;;43.30;17.10;;;-4.70;99.90;;;;;;6200021;23;20440;-83
2021/01/11 03:41:28;;;;;;;43.58;14.75;;;-4.60;99.90;;;;;;6220233;23;20489;-82
2021/01/11 03:43:54;;;;;;;34.33;14.40;;;-4.60;99.90;;;;;;6192053;23;20091;-83
2021/01/11 03:46:20;;;;;;;34.78;14.93;;;-4.60;99.90;;;;;;6193376;23;20005;-81
2021/01/11 03:48:45;;;;;;;40.53;14.38;;;-4.60;99.90;;;;;;6219605;23;20007;-82
2021/01/11 03:51:11;;;;;;;50.72;18.70;;;-4.60;99.90;;;;;;6192808;23;20004;-83
2021/01/11 03:53:38;;;;;;;44.08;16.67;;;-4.60;99.90;;;;;;6206675;22;20007;-80
2021/01/11 03:56:05;;;;;;;47.45;16.65;;;-4.60;99.90;;;;;;6214809;23;20001;-80
2021/01/11 03:58:31;;;;;;;49.40;20.50;;;-4.60;99.90;;;;;;6199730;23;20063;-82
2021/01/11 04:00:59;;;;;;;43.45;16.83;;;-4.70;99.90;;;;;;6193583;23;20020;-82
2021/01/11 04:03:26;;;;;;;42.00;15.57;;;-4.70;99.90;;;;;;6192432;23;20015;-83
2021/01/11 04:05:52;;;;;;;34.85;15.38;;;-4.70;99.90;;;;;;6191473;23;20012;-82
2021/01/11 04:08:18;;;;;;;50.05;16.52;;;-4.70;99.90;;;;;;6194477;23;20104;-82
2021/01/11 04:10:43;;;;;;;40.58;14.60;;;-4.60;99.90;;;;;;6218652;23;20000;-81
2021/01/11 04:13:09;;;;;;;46.15;16.65;;;-4.70;99.90;;;;;;6193410;23;20001;-81
2021/01/11 04:15:35;;;;;;;32.58;13.70;;;-4.70;99.90;;;;;;6194835;23;20012;-83
2021/01/11 04:18:01;;;;;;;43.72;16.35;;;-4.70;99.90;;;;;;6192368;23;20032;-83
2021/01/11 04:20:27;;;;;;;41.28;17.20;;;-4.70;99.90;;;;;;6192650;23;20076;-83
2021/01/11 04:22:53;;;;;;;51.78;19.63;;;-4.70;99.90;;;;;;6194563;23;20004;-84
2021/01/11 04:25:19;;;;;;;48.70;18.95;;;-4.80;99.90;;;;;;6193438;23;20012;-83
2021/01/11 04:27:45;;;;;;;55.40;19.95;;;-4.80;99.90;;;;;;6192298;23;20031;-83
2021/01/11 04:30:11;;;;;;;43.50;17.58;;;-4.80;99.90;;;;;;6195955;23;20020;-82
2021/01/11 04:32:43;;;;;;;51.80;18.33;;;-4.80;99.90;;;;;;6193475;23;20507;-83
2021/01/11 04:35:11;;;;;;;44.75;17.75;;;-4.80;99.90;;;;;;6207764;23;20048;-83
2021/01/11 04:37:37;;;;;;;44.20;18.40;;;-4.70;99.90;;;;;;6198599;23;20072;-83
2021/01/11 04:40:05;;;;;;;53.13;19.85;;;-4.60;99.90;;;;;;6193678;23;20341;-83
2021/01/11 04:43:03;;;;;;;43.20;17.58;;;-4.60;99.90;;;;;;6220847;23;20016;-83
2021/01/11 04:45:29;;;;;;;43.35;17.77;;;-4.50;99.90;;;;;;6214556;23;20015;-82
2021/01/11 04:47:56;;;;;;;38.25;15.20;;;-4.50;99.90;;;;;;6223175;23;20004;-83
2021/01/11 04:50:27;;;;;;;51.60;18.77;;;-4.50;99.90;;;;;;6204887;23;20000;-83
2021/01/11 04:52:53;;;;;;;56.42;19.63;;;-4.50;99.90;;;;;;6210131;23;20005;-81
2021/01/11 04:55:20;;;;;;;41.00;15.35;;;-4.60;99.90;;;;;;6238634;23;20005;-81
2021/01/11 04:57:54;;;;;;;40.00;16.92;;;-4.60;99.90;;;;;;6213266;22;20008;-81
2021/01/11 05:00:28;;;;;;;55.60;19.55;;;-4.60;99.90;;;;;;6213903;23;20057;-81
2021/01/11 05:03:05;;;;;;;53.70;19.65;;;-4.60;99.90;;;;;;6240240;22;20000;-81
2021/01/11 05:05:36;;;;;;;65.90;24.52;;;-4.60;99.90;;;;;;6214171;23;20001;-81
2021/01/11 05:08:03;;;;;;;50.35;18.70;;;-4.60;99.90;;;;;;6213782;23;19996;-81
2021/01/11 05:10:31;;;;;;;59.03;20.98;;;-4.60;99.90;;;;;;6240390;22;20005;-81
2021/01/11 05:13:07;;;;;;;60.85;21.98;;;-4.60;99.90;;;;;;6239750;22;20048;-81
2021/01/11 05:15:35;;;;;;;59.70;20.58;;;-4.50;99.90;;;;;;6213659;23;20056;-80
2021/01/11 05:18:01;;;;;;;54.55;19.20;;;-4.50;99.90;;;;;;6215263;23;20020;-81
2021/01/11 05:20:30;;;;;;;61.20;22.33;;;-4.40;99.90;;;;;;6240309;23;20000;-80
2021/01/11 05:23:07;;;;;;;55.65;20.77;;;-4.40;99.90;;;;;;6239028;23;20001;-79
2021/01/11 05:25:35;;;;;;;51.35;18.15;;;-4.40;99.90;;;;;;6211932;23;20072;-79
2021/01/11 05:28:06;;;;;;;51.17;18.33;;;-4.40;99.90;;;;;;6211003;23;20415;-79
2021/01/11 05:30:39;;;;;;;58.47;21.42;;;-4.40;99.90;;;;;;6212343;22;20021;-79
2021/01/11 05:33:06;;;;;;;51.85;20.45;;;-4.40;99.90;;;;;;6228139;23;20074;-81
2021/01/11 05:35:33;;;;;;;49.05;19.73;;;-4.50;99.90;;;;;;6196874;23;20087;-82
2021/01/11 05:38:01;;;;;;;54.25;20.98;;;-4.50;99.90;;;;;;6194482;23;20039;-82
2021/01/11 05:40:29;;;;;;;54.75;20.63;;;-4.50;99.90;;;;;;6194105;23;20429;-84
2021/01/11 05:43:00;;;;;;;50.15;18.80;;;-4.50;99.90;;;;;;6192092;23;20001;-84
2021/01/11 05:45:33;;;;;;;45.15;17.13;;;-4.60;99.90;;;;;;6219219;23;20056;-83
2021/01/11 05:48:04;;;;;;;49.58;20.50;;;-4.60;99.90;;;;;;6203446;23;20009;-81
2021/01/11 05:50:44;;;;;;;43.63;17.00;;;-4.60;99.90;;;;;;6211241;23;20177;-81
2021/01/11 05:53:24;;;;;;;47.72;19.80;;;-4.70;99.90;;;;;;6194731;23;20425;-81
2021/01/11 05:55:54;;;;;;;52.22;19.50;;;-4.70;99.90;;;;;;6196888;23;20005;-81
2021/01/11 05:58:26;;;;;;;47.53;18.95;;;-4.70;99.90;;;;;;6195161;23;20455;-82
2021/01/11 06:00:52;;;;;;;51.63;20.30;;;-4.60;99.90;;;;;;6193855;23;20005;-81
2021/01/11 06:03:18;;;;;;;50.08;18.55;;;-4.60;99.90;;;;;;6193259;23;20031;-81
2021/01/11 06:05:44;;;;;;;47.38;18.60;;;-4.60;99.90;;;;;;6190790;23;20005;-81
2021/01/11 06:08:14;;;;;;;48.90;19.58;;;-4.70;99.90;;;;;;6218798;23;19996;-81
2021/01/11 06:10:43;;;;;;;44.15;17.38;;;-4.70;99.90;;;;;;6191634;23;20000;-80
2021/01/11 06:13:10;;;;;;;43.95;17.35;;;-4.70;99.90;;;;;;6190954;23;20115;-81
2021/01/11 06:15:45;;;;;;;54.33;21.08;;;-4.70;99.90;;;;;;6193391;23;20009;-81
2021/01/11 06:18:12;;;;;;;51.88;22.35;;;-4.70;99.90;;;;;;6192571;23;20008;-81
2021/01/11 06:20:46;;;;;;;64.53;22.45;;;-4.70;99.90;;;;;;6191991;23;20028;-81
2021/01/11 06:23:25;;;;;;;46.97;19.67;;;-4.70;99.90;;;;;;6191714;23;20008;-81
2021/01/11 06:25:51;;;;;;;53.92;19.83;;;-4.70;99.90;;;;;;6191592;23;20448;-81
2021/01/11 06:28:28;;;;;;;47.92;18.45;;;-4.70;99.90;;;;;;6193295;23;20016;-81
2021/01/11 06:31:09;;;;;;;49.60;21.30;;;-4.70;99.90;;;;;;6220907;23;20004;-81
2021/01/11 06:33:35;;;;;;;54.35;20.38;;;-4.70;99.90;;;;;;6194070;23;20024;-83
2021/01/11 06:36:01;;;;;;;49.67;18.90;;;-4.70;99.90;;;;;;6194643;23;20008;-81
2021/01/11 06:38:26;;;;;;;45.00;17.55;;;-4.60;99.90;;;;;;6220412;23;20013;-81
2021/01/11 06:41:04;;;;;;;44.60;18.35;;;-4.60;99.90;;;;;;6220820;23;20008;-81
2021/01/11 06:43:49;;;;;;;53.75;20.55;;;-4.60;99.90;;;;;;6195218;23;20047;-81
2021/01/11 06:46:30;;;;;;;45.92;17.70;;;-4.70;99.90;;;;;;6210299;23;20011;-81
2021/01/11 06:49:04;;;;;;;49.90;18.58;;;-4.70;99.90;;;;;;6238834;22;20012;-81
2021/01/11 06:52:00;;;;;;;51.38;21.40;;;-4.70;99.90;;;;;;6197999;23;20012;-81
2021/01/11 06:54:46;;;;;;;46.63;19.60;;;-4.70;99.90;;;;;;6224929;23;20070;-80
2021/01/11 06:57:20;;;;;;;47.78;18.20;;;-4.70;99.90;;;;;;6224254;23;20004;-80
2021/01/11 06:59:47;;;;;;;45.90;18.50;;;-4.60;99.90;;;;;;6197161;23;20035;-82
2021/01/11 07:02:18;;;;;;;53.50;20.20;;;-4.70;99.90;;;;;;6192803;23;20087;-82
2021/01/11 07:04:44;;;;;;;46.75;17.73;;;-4.60;99.90;;;;;;6193093;23;20062;-82
2021/01/11 07:07:18;;;;;;;44.78;18.08;;;-4.60;99.90;;;;;;6193212;23;20000;-82
2021/01/11 07:10:02;;;;;;;45.92;17.80;;;-4.60;99.90;;;;;;6192742;23;20095;-81
2021/01/11 07:12:28;;;;;;;45.83;19.35;;;-4.60;99.90;;;;;;6193485;23;20008;-82
2021/01/11 07:15:06;;;;;;;47.33;19.77;;;-4.60;99.90;;;;;;6197385;23;20075;-82
2021/01/11 07:17:43;;;;;;;53.08;19.95;;;-4.60;99.80;;;;;;6192043;23;20060;-82
2021/01/11 07:20:13;;;;;;;45.17;18.67;;;-4.60;99.90;;;;;;6193219;23;20035;-82
2021/01/11 07:22:41;;;;;;;53.38;18.77;;;-4.60;99.90;;;;;;6220395;23;20015;-82
2021/01/11 07:25:23;;;;;;;50.70;18.48;;;-4.50;99.90;;;;;;6193573;23;20015;-81
2021/01/11 07:27:55;;;;;;;45.97;19.48;;;-4.40;99.90;;;;;;6192356;23;20007;-82
2021/01/11 07:30:21;;;;;;;47.72;18.80;;;-4.40;99.90;;;;;;6194126;23;20332;-80
2021/01/11 07:32:47;;;;;;;41.10;16.67;;;-4.40;99.90;;;;;;6195544;23;19996;-81
2021/01/11 07:35:12;;;;;;;40.97;16.70;;;-4.30;99.80;;;;;;6199111;23;20026;-80
2021/01/11 07:37:38;;;;;;;53.10;21.63;;;-4.30;99.40;;;;;;6200729;23;20040;-82
2021/01/11 07:40:06;;;;;;;52.40;21.02;;;-4.30;99.00;;;;;;6200984;23;20067;-81
2021/01/11 07:42:32;;;;;;;58.10;20.77;;;-4.40;98.20;;;;;;6199831;23;20009;-82
2021/01/11 07:45:07;;;;;;;49.95;19.45;;;-4.40;98.90;;;;;;6222891;23;20004;-81
2021/01/11 07:47:33;;;;;;;45.35;18.13;;;-4.50;98.60;;;;;;6195946;23;20004;-80
2021/01/11 07:49:59;;;;;;;43.58;17.63;;;-4.40;98.80;;;;;;6197043;23;20064;-82
2021/01/11 07:52:25;;;;;;;44.05;17.35;;;-4.40;98.90;;;;;;6193989;23;20001;-81
2021/01/11 07:55:02;;;;;;;47.17;19.02;;;-4.40;98.80;;;;;;6221252;23;20052;-81
2021/01/11 07:57:30;;;;;;;50.17;20.75;;;-4.50;98.30;;;;;;6192936;23;20036;-86
2021/01/11 08:00:08;;;;;;;52.22;19.77;;;-4.50;98.10;;;;;;6192718;23;20004;-87
2021/01/11 08:02:34;;;;;;;51.00;20.15;;;-4.50;98.50;;;;;;6194073;23;20375;-86
2021/01/11 08:04:59;;;;;;;46.72;17.15;;;-4.50;98.20;;;;;;6220633;23;20005;-86
2021/01/11 08:07:32;;;;;;;59.97;21.30;;;-4.50;98.70;;;;;;6221523;23;20071;-86
2021/01/11 08:09:59;;;;;;;52.60;20.65;;;-4.40;98.20;;;;;;6220871;23;20058;-86
2021/01/11 08:12:27;;;;;;;51.40;21.27;;;-4.50;97.80;;;;;;6194932;23;20012;-87
2021/01/11 08:15:00;;;;;;;46.85;19.75;;;-4.50;98.10;;;;;;6196835;23;20437;-87
2021/01/11 08:17:31;;;;;;;53.35;19.20;;;-4.50;98.30;;;;;;6199497;23;20008;-87
2021/01/11 08:20:00;;;;;;;56.08;20.65;;;-4.40;98.50;;;;;;6197807;23;20063;-87
2021/01/11 08:22:27;;;;;;;55.45;22.08;;;-4.40;97.90;;;;;;6224023;23;20007;-86
2021/01/11 08:24:58;;;;;;;57.65;22.75;;;-4.50;98.30;;;;;;6197551;23;20081;-87
2021/01/11 08:27:46;;;;;;;57.85;21.88;;;-4.50;98.60;;;;;;6223988;23;20107;-85
2021/01/11 08:30:15;;;;;;;45.20;19.10;;;-4.40;98.50;;;;;;6224815;23;20000;-86
2021/01/11 08:32:43;;;;;;;52.47;19.60;;;-4.30;98.30;;;;;;6225142;23;20000;-89
2021/01/11 08:35:17;;;;;;;52.70;19.55;;;-4.30;98.20;;;;;;6197724;23;20005;-86
2021/01/11 08:37:43;;;;;;;49.42;19.80;;;-4.20;97.70;;;;;;6226271;23;20008;-86
2021/01/11 08:40:19;;;;;;;71.63;29.80;;;-4.10;97.60;;;;;;6225195;23;20005;-87
2021/01/11 08:42:46;;;;;;;60.97;23.88;;;-4.10;97.30;;;;;;6223873;23;20000;-86
2021/01/11 08:45:34;;;;;;;50.58;20.33;;;-4.10;96.80;;;;;;6195924;23;20055;-86
2021/01/11 08:48:04;;;;;;;61.63;22.88;;;-4.10;97.10;;;;;;6227623;23;19996;-88
2021/01/11 08:50:50;;;;;;;51.38;20.52;;;-4.00;97.30;;;;;;6227221;23;20028;-87
2021/01/11 08:53:27;;;;;;;52.30;19.92;;;-3.90;96.20;;;;;;6222911;23;20001;-88
2021/01/11 08:56:04;;;;;;;62.00;22.83;;;-4.20;95.50;;;;;;6225820;23;20000;-87
2021/01/11 08:58:48;;;;;;;46.67;17.85;;;-4.30;96.90;;;;;;6225419;23;20090;-86
2021/01/11 09:01:27;;;;;;;43.75;16.75;;;-4.10;97.40;;;;;;6225658;23;20001;-88
2021/01/11 09:03:55;;;;;;;48.85;18.48;;;-4.10;97.20;;;;;;6199833;23;20005;-87
2021/01/11 09:06:43;;;;;;;55.75;22.02;;;-4.00;96.30;;;;;;6226812;23;20000;-85
2021/01/11 09:09:20;;;;;;;51.47;19.17;;;-3.90;96.90;;;;;;6209779;23;20007;-87
2021/01/11 09:11:48;;;;;;;45.25;18.70;;;-3.80;96.90;;;;;;6233347;23;20024;-87
2021/01/11 09:14:18;;;;;;;48.58;19.45;;;-3.70;95.70;;;;;;6224618;23;19997;-87
2021/01/11 09:16:54;;;;;;;50.17;21.42;;;-3.70;95.70;;;;;;6224044;23;20005;-87
2021/01/11 09:19:24;;;;;;;54.28;21.17;;;-3.80;95.30;;;;;;6227482;23;20024;-88
2021/01/11 09:22:16;;;;;;;57.53;22.13;;;-3.80;96.20;;;;;;6234504;23;20004;-86
2021/01/11 09:24:43;;;;;;;53.17;19.75;;;-3.70;96.00;;;;;;6231315;23;20003;-88
2021/01/11 09:27:09;;;;;;;52.17;19.38;;;-3.60;96.20;;;;;;6199004;23;20008;-88
2021/01/11 09:29:35;;;;;;;42.35;16.58;;;-3.50;96.30;;;;;;6224102;23;20004;-90
2021/01/11 09:32:10;;;;;;;41.90;16.35;;;-3.40;95.20;;;;;;6225529;23;20053;-84
2021/01/11 09:34:36;;;;;;;47.88;18.88;;;-3.40;94.70;;;;;;6223926;23;20001;-87
2021/01/11 09:37:02;;;;;;;38.90;17.05;;;-3.60;93.60;;;;;;6196258;23;20084;-87
2021/01/11 09:39:32;;;;;;;36.25;15.65;;;-3.60;94.70;;;;;;6200962;23;20432;-87
2021/01/11 09:41:59;;;;;;;32.13;13.95;;;;;;;;;;6203367;23;19985;-84
2021/01/11 09:44:25;;;;;;;42.42;17.67;;;-3.40;94.90;;;;;;6242038;22;20016;-84
2021/01/11 09:46:54;;;;;;;45.35;18.48;;;-3.20;94.30;;;;;;6207550;23;20028;-87
2021/01/11 09:49:20;;;;;;;47.50;19.45;;;-3.10;94.20;;;;;;6198934;23;20001;-87
2021/01/11 09:51:46;;;;;;;47.35;19.85;;;-3.10;93.30;;;;;;6198227;23;20005;-88
2021/01/11 09:54:11;;;;;;;50.60;20.38;;;-3.10;92.70;;;;;;6222364;23;20039;-89
2021/01/11 09:56:38;;;;;;;47.45;18.00;;;-3.20;93.10;;;;;;6223585;23;20495;-91
2021/01/11 09:59:08;;;;;;;48.25;20.27;;;-3.10;94.00;;;;;;6196517;23;20005;-89
2021/01/11 10:01:38;;;;;;;46.60;20.10;;;-2.90;93.80;;;;;;6197157;23;20198;-89
2021/01/11 10:04:04;;;;;;;48.42;19.65;;;-2.70;92.90;;;;;;6223482;23;20004;-89
2021/01/11 10:06:47;;;;;;;50.58;19.35;;;-2.70;92.30;;;;;;6221576;23;20384;-89
2021/01/11 10:09:23;;;;;;;50.08;21.05;;;-2.70;91.70;;;;;;6224078;23;20058;-90
2021/01/11 10:11:53;;;;;;;47.10;19.80;;;-2.80;99.90;;;;;;6195660;23;20070;-88
2021/01/11 10:14:19;;;;;;;52.33;21.40;;;-2.80;99.30;;;;;;6195197;23;20001;-90
2021/01/11 10:16:46;;;;;;;40.75;17.70;;;-3.00;92.40;;;;;;6223950;23;20007;-88
2021/01/11 10:19:17;;;;;;;55.65;20.73;;;-2.90;93.60;;;;;;6197820;23;20031;-90
2021/01/11 10:21:43;;;;;;;46.72;19.52;;;-2.70;93.50;;;;;;6198858;23;20425;-88
2021/01/11 10:24:11;;;;;;;53.72;22.10;;;-2.60;92.20;;;;;;6195268;23;20016;-89
2021/01/11 10:26:40;;;;;;;46.78;19.45;;;-2.50;91.50;;;;;;6197287;23;20029;-89
2021/01/11 10:29:06;;;;;;;52.80;20.58;;;-2.50;91.70;;;;;;6225121;23;19993;-88
2021/01/11 10:31:34;;;;;;;44.88;18.48;;;-2.40;91.50;;;;;;6224181;23;20035;-88
2021/01/11 10:34:00;;;;;;;54.92;20.70;;;-2.30;91.30;;;;;;6224118;23;19996;-90
2021/01/11 10:36:27;;;;;;;52.60;21.17;;;;;;;;;;6225081;23;19997;-89
2021/01/11 10:38:52;;;;;;;47.33;19.55;;;-2.20;89.40;;;;;;6225337;23;20012;-87
2021/01/11 10:41:20;;;;;;;53.03;21.50;;;-2.20;90.20;;;;;;6199736;23;20000;-90
2021/01/11 10:43:49;;;;;;;50.45;21.45;;;-2.20;90.40;;;;;;6199557;23;20058;-89
2021/01/11 10:46:18;;;;;;;46.80;19.27;;;-2.10;90.60;;;;;;6196836;23;20083;-86
2021/01/11 10:48:45;;;;;;;51.88;21.25;;;-2.00;89.40;;;;;;6224457;23;20008;-87
2021/01/11 10:51:15;;;;;;;50.08;19.77;;;-2.10;88.90;;;;;;6198096;23;20001;-87
2021/01/11 10:53:44;;;;;;;55.22;21.25;;;-2.10;88.90;;;;;;6223044;23;20007;-87
2021/01/11 10:56:13;;;;;;;50.35;21.10;;;-2.20;90.00;;;;;;6197944;23;20095;-87
2021/01/11 10:58:39;;;;;;;36.63;15.48;;;-2.20;89.70;;;;;;6202142;23;20016;-86
2021/01/11 11:01:08;;;;;;;50.50;19.23;;;-2.00;90.40;;;;;;6197506;23;20001;-87
2021/01/11 11:03:34;;;;;;;38.25;17.30;;;-1.80;89.50;;;;;;6196939;23;20009;-90
2021/01/11 11:06:00;;;;;;;40.45;18.25;;;-1.80;86.70;;;;;;6220712;23;20042;-87
2021/01/11 11:08:25;;;;;;;40.50;16.60;;;-1.60;88.90;;;;;;6193285;23;20020;-88
2021/01/11 11:10:52;;;;;;;47.03;19.55;;;-1.50;88.10;;;;;;6222412;23;20059;-86
2021/01/11 11:13:17;;;;;;;46.95;18.90;;;-1.40;85.40;;;;;;6222468;23;20004;-87
2021/01/11 11:15:47;;;;;;;37.42;16.80;;;-1.30;85.90;;;;;;6224279;23;20108;-86
2021/01/11 11:18:14;;;;;;;43.83;16.90;;;-1.20;86.30;;;;;;6196881;23;20016;-87
2021/01/11 11:20:40;;;;;;;42.50;19.90;;;-1.00;84.70;;;;;;6223880;23;20079;-86
2021/01/11 11:23:06;;;;;;;41.28;19.27;;;-0.90;82.80;;;;;;6196021;23;20009;-87
2021/01/11 11:25:33;;;;;;;45.35;21.25;;;-0.80;81.50;;;;;;6196843;23;20421;-87
2021/01/11 11:27:59;;;;;;;47.00;20.35;;;-1.30;81.00;;;;;;6224402;23;20070;-86
2021/01/11 11:30:25;;;;;;;50.97;22.85;;;-1.30;82.10;;;;;;6225954;23;20374;-86
2021/01/11 11:32:51;;;;;;;48.35;19.38;;;-1.30;82.80;;;;;;6224679;23;20077;-86
2021/01/11 11:35:18;;;;;;;41.10;17.88;;;-1.30;83.20;;;;;;6197529;23;20055;-86
2021/01/11 11:37:48;;;;;;;45.03;18.02;;;-1.20;83.30;;;;;;6193336;23;20020;-86
2021/01/11 11:40:17;;;;;;;37.00;17.73;;;-1.30;80.70;;;;;;6220548;23;20011;-86
2021/01/11 11:42:44;;;;;;;43.92;20.50;;;-1.40;80.70;;;;;;6218855;23;20001;-87
2021/01/11 11:45:12;;;;;;;40.00;17.05;;;-1.50;81.20;;;;;;6192012;23;20012;-87
2021/01/11 11:47:41;;;;;;;40.30;17.00;;;-1.50;82.60;;;;;;6193379;23;20008;-87
2021/01/11 11:50:15;;;;;;;42.60;17.80;;;-1.60;82.60;;;;;;6192462;23;20053;-87
2021/01/11 11:52:41;;;;;;;46.88;17.40;;;-1.30;80.90;;;;;;6193352;23;20011;-88
2021/01/11 11:55:10;;;;;;;41.67;17.95;;;-1.20;80.40;;;;;;6194100;23;20071;-87
2021/01/11 11:57:39;;;;;;;44.00;19.13;;;-1.40;80.30;;;;;;6192755;23;20008;-87
2021/01/11 12:00:06;;;;;;;48.47;18.40;;;-1.60;81.20;;;;;;6192492;23;20004;-87
2021/01/11 12:02:32;;;;;;;44.05;18.77;;;-1.80;82.80;;;;;;6218876;23;20004;-87
2021/01/11 12:04:57;;;;;;;46.35;18.50;;;-1.90;83.80;;;;;;6193123;23;20004;-88
2021/01/11 12:07:24;;;;;;;44.80;18.50;;;-1.90;84.10;;;;;;6192731;23;20057;-87
2021/01/11 12:09:54;;;;;;;45.90;19.23;;;-1.80;86.00;;;;;;6219744;23;20004;-87
2021/01/11 12:12:20;;;;;;;42.10;18.25;;;-1.70;84.80;;;;;;6192228;23;20047;-87
2021/01/11 12:14:46;;;;;;;45.47;19.52;;;-1.60;85.40;;;;;;6221413;23;19997;-88
2021/01/11 12:17:11;;;;;;;37.28;15.85;;;-1.50;82.50;;;;;;6186146;23;20058;-88
2021/01/11 12:19:40;;;;;;;36.25;16.20;;;-1.50;83.60;;;;;;6192096;23;20401;-86
2021/01/11 12:22:06;;;;;;;39.55;16.58;;;-1.50;84.50;;;;;;6193413;23;20449;-84
2021/01/11 12:24:32;;;;;;;48.60;21.13;;;-1.50;85.20;;;;;;6217703;23;19997;-89
2021/01/11 12:26:58;;;;;;;44.13;17.48;;;-1.50;83.90;;;;;;6218324;23;20009;-87
2021/01/11 12:29:24;;;;;;;45.53;18.80;;;-1.60;85.30;;;;;;6219532;23;20011;-89
2021/01/11 12:31:51;;;;;;;41.70;17.58;;;-1.50;86.00;;;;;;6203897;23;20320;-88
2021/01/11 12:34:17;;;;;;;47.22;19.85;;;-1.40;84.90;;;;;;6227793;23;20035;-88
2021/01/11 12:36:43;;;;;;;41.88;17.40;;;-1.50;83.50;;;;;;6220746;23;19997;-87
2021/01/11 12:39:11;;;;;;;43.42;17.98;;;-1.50;84.80;;;;;;6193775;23;20085;-87
2021/01/11 12:41:39;;;;;;;36.53;15.68;;;-1.50;85.10;;;;;;6211740;23;20563;-85
2021/01/11 12:44:08;;;;;;;43.38;17.98;;;-1.40;85.80;;;;;;6213946;22;20028;-85
2021/01/11 12:46:38;;;;;;;40.28;18.02;;;-1.30;84.80;;;;;;6195610;23;20013;-86
2021/01/11 12:49:05;;;;;;;39.28;17.13;;;-1.20;83.80;;;;;;6194021;23;20008;-86
2021/01/11 12:51:31;;;;;;;47.95;22.63;;;-1.00;84.50;;;;;;6192223;23;20009;-87
2021/01/11 12:53:57;;;;;;;46.17;19.48;;;-0.80;82.90;;;;;;6189650;23;19997;-87
2021/01/11 12:56:27;;;;;;;39.65;18.63;;;-0.70;83.30;;;;;;6192946;23;20031;-86
2021/01/11 12:58:54;;;;;;;38.40;17.88;;;;;;;;;;6193867;23;20094;-87
2021/01/11 13:01:24;;;;;;;37.03;17.25;;;0.20;97.80;;;;;;6193057;23;20032;-87
2021/01/11 13:03:54;;;;;;;33.80;15.80;;;0.10;96.00;;;;;;6193256;23;20011;-87
2021/01/11 13:06:27;;;;;;;34.33;16.95;;;0.10;96.00;;;;;;6191649;23;20001;-86
2021/01/11 13:08:57;;;;;;;42.63;19.25;;;-0.40;93.90;;;;;;6220087;23;20075;-87
2021/01/11 13:11:27;;;;;;;47.50;19.73;;;-0.40;90.10;;;;;;6193943;23;20003;-87
2021/01/11 13:13:54;;;;;;;48.50;19.60;;;-0.60;83.10;;;;;;6192617;23;20031;-87
2021/01/11 13:16:24;;;;;;;46.78;20.27;;;-1.00;79.90;;;;;;6192572;23;20004;-86
2021/01/11 13:18:53;;;;;;;41.03;17.48;;;-1.10;80.60;;;;;;6192630;23;20005;-87
2021/01/11 13:21:20;;;;;;;48.45;20.35;;;-1.20;81.00;;;;;;6192372;23;20381;-87
2021/01/11 13:23:46;;;;;;;53.20;21.05;;;-1.20;81.80;;;;;;6218205;23;20003;-87
2021/01/11 13:26:11;;;;;;;45.00;19.45;;;-1.30;96.00;;;;;;6219073;23;20008;-87
2021/01/11 13:28:37;;;;;;;41.85;17.50;;;-1.30;97.40;;;;;;6192272;23;20001;-87
2021/01/11 13:31:06;;;;;;;41.75;17.85;;;-1.40;96.60;;;;;;6191541;23;20027;-87
2021/01/11 13:33:33;;;;;;;38.38;16.38;;;-1.50;98.10;;;;;;6192936;23;20055;-86
2021/01/11 13:35:59;;;;;;;39.05;17.50;;;-1.50;90.80;;;;;;6217763;23;20005;-87
2021/01/11 13:38:26;;;;;;;39.35;16.88;;;-1.60;86.00;;;;;;6193223;23;20024;-87
2021/01/11 13:40:52;;;;;;;50.00;21.75;;;-1.60;86.30;;;;;;6194282;23;20005;-87
2021/01/11 13:43:18;;;;;;;50.00;20.92;;;-1.60;86.60;;;;;;6192922;23;20007;-87
2021/01/11 13:45:47;;;;;;;39.42;17.95;;;-1.80;85.80;;;;;;6194279;23;20016;-87
2021/01/11 13:48:14;;;;;;;52.30;21.58;;;-1.90;87.10;;;;;;6193917;23;20009;-86
2021/01/11 13:50:39;;;;;;;55.83;22.70;;;-2.00;86.40;;;;;;6191349;23;20344;-87
2021/01/11 13:53:05;;;;;;;53.22;22.02;;;-2.10;86.70;;;;;;6219039;23;19997;-86
2021/01/11 13:55:31;;;;;;;53.05;21.58;;;-2.20;87.20;;;;;;6192432;23;20019;-86
2021/01/11 13:57:57;;;;;;;49.25;20.77;;;-2.30;88.80;;;;;;6218654;23;20000;-86
2021/01/11 14:00:23;;;;;;;50.33;20.92;;;-2.20;89.90;;;;;;6194286;23;20008;-87
2021/01/11 14:02:51;;;;;;;51.72;21.83;;;-2.20;88.20;;;;;;6220056;23;20062;-88
2021/01/11 14:05:18;;;;;;;48.38;20.30;;;-2.30;88.50;;;;;;6192400;23;20498;-87
2021/01/11 14:07:47;;;;;;;46.38;19.85;;;-2.50;89.90;;;;;;6219738;23;20361;-88
2021/01/11 14:10:14;;;;;;;49.95;19.08;;;-2.50;90.60;;;;;;6191833;23;20463;-88
2021/01/11 14:12:40;;;;;;;53.05;21.42;;;-2.50;90.80;;;;;;6191463;23;20012;-87
2021/01/11 14:15:08;;;;;;;45.85;19.00;;;-2.50;90.70;;;;;;6191689;23;20001;-87
2021/01/11 14:17:34;;;;;;;47.72;19.08;;;-2.50;90.90;;;;;;6190890;23;20009;-87
2021/01/11 14:20:03;;;;;;;61.47;22.13;;;-2.60;90.90;;;;;;6217759;23;20107;-86
2021/01/11 14:22:32;;;;;;;51.05;21.63;;;-2.60;90.80;;;;;;6191946;23;20076;-87
2021/01/11 14:24:57;;;;;;;53.92;21.83;;;-2.70;91.10;;;;;;6192516;23;20004;-86
2021/01/11 14:27:23;;;;;;;50.70;20.23;;;-2.70;91.30;;;;;;6190944;23;20011;-87
2021/01/11 14:29:49;;;;;;;58.45;23.67;;;-2.70;91.60;;;;;;6218630;23;20068;-87
2021/01/11 14:32:15;;;;;;;62.75;24.17;;;-2.60;91.20;;;;;;6218775;23;20035;-86
2021/01/11 14:34:43;;;;;;;63.90;26.45;;;-2.80;91.20;;;;;;6190627;23;20392;-87
2021/01/11 14:37:09;;;;;;;76.75;33.72;;;-2.30;94.90;;;;;;6191066;23;20005;-86
2021/01/11 14:39:34;;;;;;;75.75;30.77;;;-2.50;95.40;;;;;;6191988;23;20031;-86
2021/01/11 14:42:08;;;;;;;58.95;23.80;;;-2.90;99.90;;;;;;6199834;23;20001;-86
2021/01/11 14:44:35;;;;;;;56.63;22.48;;;-2.90;95.40;;;;;;6225313;23;20013;-86
2021/01/11 14:47:01;;;;;;;51.63;20.67;;;;;;;;;;6192478;23;20005;-86
2021/01/11 14:49:27;;;;;;;46.60;19.17;;;-3.00;99.90;;;;;;6203266;23;20015;-87
2021/01/11 14:51:53;;;;;;;49.60;21.15;;;-3.00;93.30;;;;;;6201973;23;20036;-87
2021/01/11 14:54:21;;;;;;;58.88;21.70;;;-3.10;93.30;;;;;;6201008;23;20009;-86
2021/01/11 14:56:47;;;;;;;54.78;21.90;;;-3.20;93.20;;;;;;6229289;23;20000;-86
2021/01/11 14:59:13;;;;;;;52.35;20.02;;;-3.20;93.00;;;;;;6177228;23;20009;-87
2021/01/11 15:01:41;;;;;;;55.17;21.25;;;-3.30;93.00;;;;;;6201355;23;20376;-87
2021/01/11 15:04:07;;;;;;;61.13;21.70;;;-3.00;94.90;;;;;;6201298;23;20004;-87
2021/01/11 15:06:33;;;;;;;58.80;21.70;;;-3.30;95.70;;;;;;6201701;23;20061;-87
2021/01/11 15:08:59;;;;;;;45.25;18.45;;;-3.50;93.70;;;;;;6200956;23;20400;-86
2021/01/11 15:11:24;;;;;;;45.33;18.30;;;-3.50;94.20;;;;;;6202029;23;20015;-86
2021/01/11 15:13:51;;;;;;;63.55;22.75;;;-3.40;99.90;;;;;;6228080;23;20333;-86